Portada
METAR-TAF:

METAR-TAF

Aeropuertos :

Anchorage, Alaska, Estados Unidos

latitud: 61-13N, longitud: 149-51W, altitud: 42 m

Observación

El informe se hizo hace 16 minutos, a las 18:53 UTC
Viento calma
Temperatura 15°C
Humedad 82%
Presión 1009 hPa
Visibilidad: 16.1 km
Escasas nubes a una altura de 500 ft
Nubes dispersas a una altura de 3800 ft
Cielo nuboso a una altura de 8500 ft

METAR: PAMR 151853Z 00000KT 10SM FEW005 SCT038 BKN085 15/12 A2981 RMK AO2 SLP095 T01500122

Hora: 11:09 (19:09 UTC)


TAF: falta

Observaciones y pronósticos meteorológicos de más de 4000 aeropuertos (mensajes METAR y TAF).

Los puntos amarillos y rojos representan las estaciones disponibles.

Ponga el ratón en el punto deseado para ver el nombre de la estación.

Haga clic para ver las observaciones y los pronósticos meteorológicos.

Para cambiar el mapa : haga clic en los botones verdes con una cruz de color negro para hacer un zoom, en el botón verde con un guión para alejar o en las flechas verdes para mapas adyacentes.


METAR-TAF: